createdAt,value
2022-10-26T00:01:23.404Z,99242.75
2022-10-26T00:03:51.872Z,99240.00
2022-10-26T00:06:24.998Z,99242.28
2022-10-26T00:08:56.590Z,99246.73
2022-10-26T00:11:25.626Z,99243.94
2022-10-26T00:13:53.405Z,99241.41
2022-10-26T00:16:26.930Z,99247.84
2022-10-26T00:18:55.034Z,99245.80
2022-10-26T00:21:22.840Z,99243.81
2022-10-26T00:23:50.508Z,99246.04
2022-10-26T00:26:19.802Z,99245.62
2022-10-26T00:28:47.681Z,99248.98
2022-10-26T00:31:17.793Z,99247.54
2022-10-26T00:33:46.768Z,99253.14
2022-10-26T00:36:17.700Z,99251.73
2022-10-26T00:38:56.151Z,99252.18
2022-10-26T00:41:29.902Z,99253.52
2022-10-26T00:43:58.458Z,99254.91
2022-10-26T00:46:44.296Z,99252.95
2022-10-26T00:49:21.582Z,99257.19
2022-10-26T00:51:53.632Z,99255.69
2022-10-26T00:54:22.882Z,99254.93
2022-10-26T00:56:54.661Z,99253.05
2022-10-26T00:59:24.346Z,99255.58
2022-10-26T01:01:53.686Z,99254.73
2022-10-26T01:04:22.784Z,99254.98
2022-10-26T01:06:52.453Z,99254.95
2022-10-26T01:09:21.870Z,99257.56
2022-10-26T01:11:49.505Z,99259.45
2022-10-26T01:14:20.034Z,99258.52
2022-10-26T01:17:12.001Z,99263.26
2022-10-26T01:20:27.760Z,99261.76
2022-10-26T01:23:06.644Z,99259.91
2022-10-26T01:26:04.536Z,99257.86
2022-10-26T01:28:59.466Z,99256.03
2022-10-26T01:31:40.241Z,99250.80
2022-10-26T01:34:38.813Z,99246.83
2022-10-26T01:37:15.591Z,99248.60
2022-10-26T01:39:53.691Z,99254.31
2022-10-26T01:42:24.513Z,99256.30
2022-10-26T01:45:02.223Z,99259.20
2022-10-26T01:47:35.135Z,99262.98
2022-10-26T01:50:05.884Z,99259.45
2022-10-26T01:52:34.863Z,99260.66
2022-10-26T01:55:27.093Z,99262.77
2022-10-26T01:58:07.025Z,99265.98
2022-10-26T02:00:45.314Z,99271.48
2022-10-26T02:03:30.547Z,99268.59
2022-10-26T02:06:15.978Z,99270.98
2022-10-26T02:09:12.282Z,99271.48
2022-10-26T02:11:46.871Z,99268.10
2022-10-26T02:14:42.267Z,99268.64
2022-10-26T02:17:29.801Z,99269.11
2022-10-26T02:20:07.702Z,99270.13
2022-10-26T02:22:41.428Z,99272.52
2022-10-26T02:25:16.915Z,99279.41
2022-10-26T02:27:54.448Z,99278.73
2022-10-26T02:30:23.051Z,99281.53
2022-10-26T02:32:55.297Z,99279.98
2022-10-26T02:35:30.985Z,99274.63
2022-10-26T02:38:04.734Z,99277.90
2022-10-26T02:40:34.758Z,99279.28
2022-10-26T02:43:08.733Z,99280.66
2022-10-26T02:45:47.550Z,99276.71
2022-10-26T02:48:16.452Z,99280.57
2022-10-26T02:51:07.412Z,99281.59
2022-10-26T02:54:08.584Z,99282.77
2022-10-26T02:56:48.586Z,99278.01
2022-10-26T02:59:19.610Z,99280.86
2022-10-26T03:01:48.538Z,99285.10
2022-10-26T03:04:16.338Z,99284.55
2022-10-26T03:06:54.493Z,99288.93
2022-10-26T03:09:24.871Z,99291.00
2022-10-26T03:11:54.335Z,99295.73
2022-10-26T03:14:22.119Z,99296.77
2022-10-26T03:19:22.612Z,99301.59
2022-10-26T03:21:50.271Z,99299.57
2022-10-26T03:24:17.931Z,99302.48
2022-10-26T03:26:47.359Z,99305.40
2022-10-26T03:29:15.110Z,99302.92
2022-10-26T03:31:42.910Z,99306.30
2022-10-26T03:34:10.538Z,99303.45
2022-10-26T03:36:41.003Z,99304.29
2022-10-26T03:39:09.759Z,99304.61
2022-10-26T03:41:37.452Z,99306.40
2022-10-26T03:44:07.136Z,99304.91
2022-10-26T03:46:34.734Z,99309.66
2022-10-26T03:49:02.378Z,99307.82
2022-10-26T03:51:30.294Z,99303.64
2022-10-26T03:53:57.938Z,99304.96
2022-10-26T03:56:27.004Z,99305.00
2022-10-26T03:58:56.966Z,99303.45
2022-10-26T04:01:26.916Z,99303.09
2022-10-26T04:03:54.725Z,99305.75
2022-10-26T04:06:24.457Z,99305.54
2022-10-26T04:08:54.603Z,99306.77
2022-10-26T04:11:22.212Z,99303.38
2022-10-26T04:13:49.906Z,99302.42
2022-10-26T04:16:17.530Z,99299.67
2022-10-26T04:18:47.234Z,99302.23
2022-10-26T04:21:17.198Z,99300.30
2022-10-26T04:23:45.548Z,99304.36
2022-10-26T04:26:14.367Z,99306.71
2022-10-26T04:28:42.024Z,99307.97
2022-10-26T04:31:09.688Z,99310.55
2022-10-26T04:33:37.395Z,99313.61
2022-10-26T04:36:05.415Z,99312.80
2022-10-26T04:38:35.362Z,99308.67
2022-10-26T04:41:03.150Z,99313.36
2022-10-26T04:43:30.800Z,99315.40
2022-10-26T04:45:59.075Z,99320.19
2022-10-26T04:48:27.037Z,99321.42
2022-10-26T04:50:54.940Z,99321.02
2022-10-26T04:53:22.602Z,99325.73
2022-10-26T04:55:50.248Z,99322.39
2022-10-26T04:58:18.134Z,99320.95
2022-10-26T05:00:45.841Z,99325.16
2022-10-26T05:03:13.730Z,99321.63
2022-10-26T05:05:41.477Z,99326.35
2022-10-26T05:08:09.346Z,99328.52
2022-10-26T05:10:37.140Z,99324.55
2022-10-26T05:13:04.958Z,99327.70
2022-10-26T05:15:32.690Z,99326.96
2022-10-26T05:18:04.094Z,99333.37
2022-10-26T05:20:35.071Z,99337.63
2022-10-26T05:23:08.756Z,99340.57
2022-10-26T05:25:39.546Z,99341.55
2022-10-26T05:28:11.814Z,99343.87
2022-10-26T05:30:42.476Z,99343.89
2022-10-26T05:33:14.279Z,99344.31
2022-10-26T05:35:44.155Z,99345.66
2022-10-26T05:38:18.255Z,99348.16
2022-10-26T05:40:54.212Z,99353.98
2022-10-26T05:43:24.356Z,99352.59
2022-10-26T05:45:52.089Z,99358.90
2022-10-26T05:48:22.764Z,99354.58
2022-10-26T05:50:50.500Z,99355.30
2022-10-26T05:53:18.332Z,99353.71
2022-10-26T05:55:48.058Z,99355.52
2022-10-26T05:58:18.173Z,99357.91
2022-10-26T06:01:09.528Z,99361.67
2022-10-26T06:04:08.234Z,99364.19
2022-10-26T06:06:47.206Z,99365.55
2022-10-26T06:09:15.304Z,99365.48
2022-10-26T06:11:45.086Z,99368.11
2022-10-26T06:14:13.138Z,99372.55
2022-10-26T06:17:03.438Z,99377.61
2022-10-26T06:19:37.644Z,99383.69
2022-10-26T06:22:43.321Z,99384.54
2022-10-26T06:25:32.555Z,99388.08
2022-10-26T06:28:38.772Z,99395.84
2022-10-26T06:31:08.703Z,99396.91
2022-10-26T06:33:38.450Z,99398.73
2022-10-26T06:36:23.780Z,99405.33
2022-10-26T06:38:59.863Z,99401.65
2022-10-26T06:41:34.451Z,99407.52
2022-10-26T06:44:05.308Z,99404.41
2022-10-26T06:46:53.397Z,99407.17
2022-10-26T06:49:34.162Z,99408.15
2022-10-26T06:52:13.623Z,99412.75
2022-10-26T06:54:47.354Z,99410.61
2022-10-26T06:57:23.560Z,99413.08
2022-10-26T07:00:02.170Z,99414.20
2022-10-26T07:02:32.923Z,99419.41
2022-10-26T07:05:03.633Z,99417.34
2022-10-26T07:07:33.603Z,99419.67
2022-10-26T07:10:03.595Z,99420.04
2022-10-26T07:12:33.277Z,99419.74
2022-10-26T07:15:05.965Z,99420.15
2022-10-26T07:17:43.970Z,99420.64
2022-10-26T07:20:14.087Z,99426.45
2022-10-26T07:22:44.436Z,99429.48
2022-10-26T07:25:13.872Z,99432.18
2022-10-26T07:27:41.536Z,99435.05
2022-10-26T07:30:11.536Z,99438.83
2022-10-26T07:32:41.020Z,99438.43
2022-10-26T07:35:08.902Z,99439.95
2022-10-26T07:37:36.720Z,99439.67
2022-10-26T07:40:07.120Z,99443.84
2022-10-26T07:42:41.018Z,99439.20
2022-10-26T07:45:10.999Z,99443.69
2022-10-26T07:47:38.774Z,99444.09
2022-10-26T07:50:08.716Z,99442.36
2022-10-26T07:52:38.802Z,99443.85
2022-10-26T07:55:10.317Z,99446.95
2022-10-26T07:57:40.158Z,99444.73
2022-10-26T08:00:11.238Z,99443.61
2022-10-26T08:02:39.001Z,99445.73
2022-10-26T08:05:06.950Z,99440.73
2022-10-26T08:07:43.449Z,99435.96
2022-10-26T08:10:13.848Z,99440.05
2022-10-26T08:12:44.164Z,99444.27
2022-10-26T08:15:12.018Z,99443.52
2022-10-26T08:17:41.486Z,99442.31
2022-10-26T08:20:11.506Z,99440.90
2022-10-26T08:22:39.312Z,99441.36
2022-10-26T08:25:07.244Z,99444.35
2022-10-26T08:27:36.760Z,99444.75
2022-10-26T08:30:04.855Z,99445.89
2022-10-26T08:32:34.340Z,99445.83
2022-10-26T08:35:01.967Z,99444.10
2022-10-26T08:37:31.593Z,99442.02
2022-10-26T08:40:00.707Z,99438.73
2022-10-26T08:42:40.464Z,99442.34
2022-10-26T08:45:36.862Z,99442.04
2022-10-26T08:48:17.353Z,99437.20
2022-10-26T08:50:57.816Z,99432.77
2022-10-26T08:53:38.631Z,99441.02
2022-10-26T08:56:20.482Z,99439.35
2022-10-26T08:59:20.568Z,99445.30
2022-10-26T09:01:50.936Z,99441.29
2022-10-26T09:04:28.896Z,99441.80
2022-10-26T09:07:25.032Z,99439.38
2022-10-26T09:10:14.720Z,99442.65
2022-10-26T09:13:03.029Z,99444.11
2022-10-26T09:16:03.014Z,99445.41
2022-10-26T09:18:49.297Z,99443.06
2022-10-26T09:21:42.416Z,99442.02
2022-10-26T09:24:24.839Z,99445.34
2022-10-26T09:27:00.099Z,99447.39
2022-10-26T09:29:35.350Z,99444.23
2022-10-26T09:32:16.147Z,99445.73
2022-10-26T09:34:55.377Z,99445.59
2022-10-26T09:37:37.010Z,99449.09
2022-10-26T09:40:20.081Z,99458.63
2022-10-26T09:43:06.010Z,99458.64
2022-10-26T09:45:39.348Z,99461.39
2022-10-26T09:48:47.559Z,99464.63
2022-10-26T09:51:19.915Z,99464.58
2022-10-26T09:53:50.143Z,99466.80
2022-10-26T09:56:19.748Z,99468.92
2022-10-26T09:59:05.724Z,99470.21
2022-10-26T10:01:41.396Z,99472.38
2022-10-26T10:04:14.426Z,99470.41
2022-10-26T10:06:45.469Z,99469.72
2022-10-26T10:09:24.795Z,99474.40
2022-10-26T10:11:58.036Z,99472.02
2022-10-26T10:14:28.223Z,99478.55
2022-10-26T10:17:00.442Z,99478.58
2022-10-26T10:19:31.658Z,99477.95
2022-10-26T10:22:09.855Z,99474.75
2022-10-26T10:24:43.308Z,99475.91
2022-10-26T10:27:16.941Z,99470.57
2022-10-26T10:29:52.039Z,99478.92
2022-10-26T10:32:24.110Z,99472.39
2022-10-26T10:34:57.020Z,99472.16
2022-10-26T10:37:30.694Z,99466.86
2022-10-26T10:40:06.999Z,99468.13
2022-10-26T10:42:41.723Z,99464.01
2022-10-26T10:45:22.035Z,99462.27
2022-10-26T10:48:06.713Z,99464.27
2022-10-26T10:50:36.620Z,99457.25
2022-10-26T10:53:24.542Z,99460.52
2022-10-26T10:56:21.804Z,99462.58
2022-10-26T10:59:26.386Z,99459.96
2022-10-26T11:02:36.281Z,99456.43
2022-10-26T11:05:09.991Z,99458.21
2022-10-26T11:07:52.619Z,99458.42
2022-10-26T11:10:26.895Z,99463.69
2022-10-26T11:13:03.197Z,99460.55
2022-10-26T11:15:38.874Z,99463.76
2022-10-26T11:18:18.251Z,99461.85
2022-10-26T11:20:54.488Z,99464.14
2022-10-26T11:23:51.255Z,99462.60
2022-10-26T11:26:35.942Z,99465.20
2022-10-26T11:29:18.806Z,99464.96
2022-10-26T11:31:56.032Z,99464.85
2022-10-26T11:34:35.434Z,99465.02
2022-10-26T11:37:38.458Z,99462.89
2022-10-26T11:40:30.085Z,99463.45
2022-10-26T11:43:20.620Z,99463.80
2022-10-26T11:46:15.273Z,99460.60
2022-10-26T11:49:00.595Z,99457.62
2022-10-26T11:51:54.373Z,99457.73
2022-10-26T11:54:52.299Z,99459.24
2022-10-26T11:57:24.347Z,99454.75
2022-10-26T12:00:08.057Z,99458.73
2022-10-26T12:02:59.803Z,99462.65
2022-10-26T12:05:34.350Z,99461.38
2022-10-26T12:08:16.449Z,99455.77
2022-10-26T12:10:50.692Z,99457.23
2022-10-26T12:13:32.092Z,99453.86
2022-10-26T12:16:15.061Z,99459.82
2022-10-26T12:19:05.534Z,99464.66
2022-10-26T12:21:35.516Z,99462.11
2022-10-26T12:24:25.341Z,99464.83
2022-10-26T12:26:58.672Z,99467.52
2022-10-26T12:29:30.381Z,99464.00
2022-10-26T12:31:59.914Z,99467.52
2022-10-26T12:34:30.445Z,99464.91
2022-10-26T12:36:58.148Z,99463.08
2022-10-26T12:39:37.790Z,99461.54
2022-10-26T12:42:10.251Z,99463.08
2022-10-26T12:44:50.279Z,99460.68
2022-10-26T12:47:30.289Z,99463.54
2022-10-26T12:50:05.903Z,99466.20
2022-10-26T12:52:49.066Z,99465.35
2022-10-26T12:55:48.193Z,99467.72
2022-10-26T12:59:04.337Z,99463.24
2022-10-26T13:01:40.724Z,99463.41
2022-10-26T13:04:33.152Z,99461.10
2022-10-26T13:07:23.625Z,99459.34
2022-10-26T13:10:03.480Z,99457.48
2022-10-26T13:12:54.483Z,99459.77
2022-10-26T13:15:27.994Z,99458.89
2022-10-26T13:18:20.473Z,99459.73
2022-10-26T13:21:15.122Z,99457.77
2022-10-26T13:23:47.841Z,99459.46
2022-10-26T13:26:19.690Z,99461.32
2022-10-26T13:28:57.310Z,99465.59
2022-10-26T13:31:36.119Z,99464.84
2022-10-26T13:34:12.678Z,99468.82
2022-10-26T13:37:13.580Z,99471.04
2022-10-26T13:39:49.572Z,99470.65
2022-10-26T13:42:27.152Z,99467.20
2022-10-26T13:45:07.349Z,99467.80
2022-10-26T13:47:53.698Z,99469.52
2022-10-26T13:50:30.019Z,99469.83
2022-10-26T13:53:12.303Z,99474.40
2022-10-26T13:55:55.062Z,99474.23
2022-10-26T13:58:34.736Z,99473.81
2022-10-26T14:01:14.959Z,99481.16
2022-10-26T14:03:45.165Z,99481.71
2022-10-26T14:06:33.964Z,99482.40
2022-10-26T14:09:15.942Z,99481.63
2022-10-26T14:11:53.474Z,99481.98
2022-10-26T14:14:37.161Z,99482.01
2022-10-26T14:17:09.999Z,99487.38
2022-10-26T14:19:41.669Z,99488.33
2022-10-26T14:22:23.127Z,99490.80
2022-10-26T14:27:40.723Z,99494.80
2022-10-26T14:30:29.529Z,99493.52
2022-10-26T14:32:59.736Z,99494.25
2022-10-26T14:35:37.717Z,99493.48
2022-10-26T14:38:27.107Z,99494.91
2022-10-26T14:40:59.172Z,99496.41
2022-10-26T14:43:27.532Z,99498.23
2022-10-26T14:45:57.096Z,99504.01
2022-10-26T14:48:34.000Z,99507.09
2022-10-26T14:51:16.264Z,99508.57
2022-10-26T14:53:53.169Z,99510.78
2022-10-26T14:56:41.876Z,99512.05
2022-10-26T14:59:19.495Z,99514.20
2022-10-26T15:02:00.608Z,99518.95
2022-10-26T15:04:38.787Z,99522.66
2022-10-26T15:07:12.567Z,99524.17
2022-10-26T15:09:46.867Z,99524.80
2022-10-26T15:12:34.867Z,99525.85
2022-10-26T15:15:15.141Z,99524.29
2022-10-26T15:17:56.710Z,99527.88
2022-10-26T15:20:28.957Z,99526.98
2022-10-26T15:23:01.873Z,99532.98
2022-10-26T15:25:36.036Z,99531.98
2022-10-26T15:28:32.873Z,99534.67
2022-10-26T15:31:15.480Z,99534.80
2022-10-26T15:33:52.385Z,99535.25
2022-10-26T15:36:23.869Z,99536.57
2022-10-26T15:38:57.530Z,99544.41
2022-10-26T15:41:42.943Z,99546.23
2022-10-26T15:44:19.340Z,99544.31
2022-10-26T15:46:49.829Z,99547.09
2022-10-26T15:49:21.390Z,99550.23
2022-10-26T15:51:49.292Z,99553.89
2022-10-26T15:54:19.662Z,99556.92
2022-10-26T15:56:49.788Z,99557.88
2022-10-26T15:59:20.630Z,99560.50
2022-10-26T16:01:48.463Z,99558.69
2022-10-26T16:04:20.182Z,99563.25
2022-10-26T16:06:47.881Z,99565.00
2022-10-26T16:09:18.936Z,99565.83
2022-10-26T16:11:46.717Z,99563.79
2022-10-26T16:14:14.362Z,99563.59
2022-10-26T16:16:42.026Z,99563.21
2022-10-26T16:19:29.956Z,99565.27
2022-10-26T16:22:02.479Z,99566.17
2022-10-26T16:24:33.053Z,99571.23
2022-10-26T16:27:00.754Z,99571.42
2022-10-26T16:29:28.517Z,99572.23
2022-10-26T16:31:56.189Z,99570.46
2022-10-26T16:34:23.878Z,99573.55
2022-10-26T16:36:51.575Z,99576.77
2022-10-26T16:39:20.047Z,99578.48
2022-10-26T16:41:51.342Z,99583.41
2022-10-26T16:44:19.006Z,99583.17
2022-10-26T16:46:46.697Z,99584.16
2022-10-26T16:49:14.376Z,99583.83
2022-10-26T16:51:42.079Z,99588.92
2022-10-26T16:54:09.770Z,99591.30
2022-10-26T16:56:39.512Z,99593.55
2022-10-26T16:59:10.966Z,99593.85
2022-10-26T17:01:38.676Z,99598.02
2022-10-26T17:04:11.251Z,99596.77
2022-10-26T17:06:38.882Z,99596.46
2022-10-26T17:09:06.659Z,99601.16
2022-10-26T17:11:34.387Z,99602.69
2022-10-26T17:14:02.244Z,99606.30
2022-10-26T17:16:30.055Z,99607.27
2022-10-26T17:18:57.730Z,99610.55
2022-10-26T17:21:33.090Z,99610.68
2022-10-26T17:24:03.628Z,99612.86
2022-10-26T17:26:31.314Z,99611.88
2022-10-26T17:29:01.272Z,99616.44
2022-10-26T17:31:32.974Z,99616.75
2022-10-26T17:34:00.807Z,99619.59
2022-10-26T17:36:28.644Z,99616.79
2022-10-26T17:38:59.476Z,99620.76
2022-10-26T17:41:28.346Z,99623.35
2022-10-26T17:43:56.195Z,99624.83
2022-10-26T17:46:27.267Z,99630.95
2022-10-26T17:48:58.605Z,99633.98
2022-10-26T17:51:29.365Z,99634.02
2022-10-26T17:53:59.294Z,99637.31
2022-10-26T17:56:29.946Z,99638.52
2022-10-26T17:59:05.589Z,99641.10
2022-10-26T18:01:33.649Z,99642.42
2022-10-26T18:04:03.856Z,99644.06
2022-10-26T18:06:31.663Z,99647.06
2022-10-26T18:09:01.593Z,99647.46
2022-10-26T18:13:58.902Z,99653.61
2022-10-26T18:16:28.918Z,99662.39
2022-10-26T18:19:04.798Z,99663.52
2022-10-26T18:21:39.189Z,99660.98
2022-10-26T18:24:12.657Z,99666.61
2022-10-26T18:26:40.348Z,99671.04
2022-10-26T18:29:13.424Z,99670.79
2022-10-26T18:31:41.379Z,99670.25
2022-10-26T18:34:11.293Z,99675.36
2022-10-26T18:36:39.001Z,99680.01
2022-10-26T18:39:08.938Z,99683.23
2022-10-26T18:41:36.677Z,99687.27
2022-10-26T18:44:04.641Z,99687.93
2022-10-26T18:46:42.668Z,99690.51
2022-10-26T18:49:14.076Z,99689.01
2022-10-26T18:51:41.950Z,99691.22
2022-10-26T18:54:10.102Z,99690.07
2022-10-26T18:56:38.289Z,99693.70
2022-10-26T18:59:09.215Z,99692.04
2022-10-26T19:01:42.077Z,99696.69
2022-10-26T19:04:12.740Z,99698.53
2022-10-26T19:06:47.654Z,99700.93
2022-10-26T19:09:20.475Z,99701.77
2022-10-26T19:11:48.274Z,99701.35
2022-10-26T19:14:18.871Z,99703.63
2022-10-26T19:16:52.598Z,99706.71
2022-10-26T19:19:25.379Z,99708.79
2022-10-26T19:21:53.865Z,99709.48
2022-10-26T19:24:25.200Z,99713.27
2022-10-26T19:26:59.858Z,99718.04
2022-10-26T19:29:27.584Z,99720.80
2022-10-26T19:31:55.467Z,99724.73
2022-10-26T19:34:26.500Z,99723.75
2022-10-26T19:36:54.218Z,99723.26
2022-10-26T19:39:27.182Z,99724.04
2022-10-26T19:41:54.877Z,99728.31
2022-10-26T19:44:25.464Z,99732.15
2022-10-26T19:46:54.240Z,99735.77
2022-10-26T19:49:22.050Z,99736.95
2022-10-26T19:51:49.671Z,99738.02
2022-10-26T19:54:20.373Z,99739.17
2022-10-26T19:56:48.069Z,99740.64
2022-10-26T19:59:15.884Z,99742.67
2022-10-26T20:01:43.610Z,99745.76
2022-10-26T20:04:11.532Z,99743.46
2022-10-26T20:06:44.329Z,99747.48
2022-10-26T20:09:12.050Z,99749.63
2022-10-26T20:11:45.548Z,99750.07
2022-10-26T20:14:17.279Z,99755.20
2022-10-26T20:16:45.073Z,99757.29
2022-10-26T20:19:12.876Z,99758.79
2022-10-26T20:21:40.558Z,99760.58
2022-10-26T20:24:10.230Z,99762.47
2022-10-26T20:26:40.109Z,99762.23
2022-10-26T20:29:07.917Z,99761.23
2022-10-26T20:31:38.633Z,99761.36
2022-10-26T20:34:06.292Z,99764.96
2022-10-26T20:36:34.074Z,99764.86
2022-10-26T20:39:07.531Z,99764.54
2022-10-26T20:41:45.968Z,99765.09
2022-10-26T20:44:23.284Z,99769.94
2022-10-26T20:46:52.607Z,99771.38
2022-10-26T20:49:20.586Z,99774.54
2022-10-26T20:52:19.362Z,99772.36
2022-10-26T20:55:02.652Z,99769.23
2022-10-26T20:57:33.220Z,99776.90
2022-10-26T21:00:10.659Z,99774.10
2022-10-26T21:02:38.763Z,99776.60
2022-10-26T21:05:06.940Z,99777.52
2022-10-26T21:07:34.760Z,99778.38
2022-10-26T21:10:02.426Z,99777.06
2022-10-26T21:12:30.124Z,99777.20
2022-10-26T21:15:01.023Z,99777.67
2022-10-26T21:17:28.706Z,99775.11
2022-10-26T21:19:56.649Z,99771.50
2022-10-26T21:22:28.006Z,99774.88
2022-10-26T21:24:55.647Z,99776.27
2022-10-26T21:27:26.286Z,99776.68
2022-10-26T21:29:53.935Z,99781.89
2022-10-26T21:32:21.577Z,99780.98
2022-10-26T21:34:49.276Z,99776.37
2022-10-26T21:37:17.042Z,99779.24
2022-10-26T21:39:44.718Z,99783.28
2022-10-26T21:42:15.309Z,99781.05
2022-10-26T21:44:42.967Z,99779.35
2022-10-26T21:47:13.797Z,99781.59
2022-10-26T21:52:14.385Z,99786.35
2022-10-26T21:54:42.772Z,99786.10
2022-10-26T21:57:10.408Z,99783.06
2022-10-26T21:59:38.094Z,99783.84
2022-10-26T22:02:08.208Z,99783.38
2022-10-26T22:04:38.927Z,99787.52
2022-10-26T22:07:06.634Z,99788.25
2022-10-26T22:09:40.644Z,99787.09
2022-10-26T22:12:20.080Z,99787.70
2022-10-26T22:14:47.712Z,99787.46
2022-10-26T22:17:15.388Z,99784.90
2022-10-26T22:19:43.032Z,99785.81
2022-10-26T22:22:10.711Z,99784.11
2022-10-26T22:24:38.369Z,99789.75
2022-10-26T22:27:06.014Z,99789.29
2022-10-26T22:29:36.202Z,99788.67
2022-10-26T22:32:07.047Z,99789.64
2022-10-26T22:34:34.777Z,99789.71
2022-10-26T22:37:02.478Z,99791.14
2022-10-26T22:39:30.157Z,99796.34
2022-10-26T22:41:58.543Z,99793.98
2022-10-26T22:44:26.243Z,99797.10
2022-10-26T22:46:53.881Z,99797.95
2022-10-26T22:49:21.679Z,99800.92
2022-10-26T22:51:49.339Z,99801.77
2022-10-26T22:54:17.147Z,99801.58
2022-10-26T22:56:44.789Z,99800.31
2022-10-26T22:59:12.449Z,99801.48
2022-10-26T23:01:41.985Z,99798.95
2022-10-26T23:04:13.390Z,99798.42
2022-10-26T23:06:41.278Z,99801.08
2022-10-26T23:09:08.936Z,99801.60
2022-10-26T23:11:36.705Z,99802.33
2022-10-26T23:14:07.388Z,99800.49
2022-10-26T23:16:35.099Z,99796.12
2022-10-26T23:19:03.178Z,99799.27
2022-10-26T23:21:30.923Z,99797.89
2022-10-26T23:23:58.761Z,99801.48
2022-10-26T23:26:33.618Z,99805.54
2022-10-26T23:29:04.230Z,99802.78
2022-10-26T23:31:31.885Z,99806.34
2022-10-26T23:34:02.932Z,99805.16
2022-10-26T23:36:30.623Z,99805.19
2022-10-26T23:38:58.366Z,99812.51
2022-10-26T23:41:26.126Z,99815.73
2022-10-26T23:43:53.729Z,99813.35
2022-10-26T23:46:21.574Z,99815.52
2022-10-26T23:48:49.266Z,99816.66
2022-10-26T23:51:16.943Z,99815.12
2022-10-26T23:53:45.136Z,99815.73
2022-10-26T23:56:12.820Z,99818.66
2022-10-26T23:58:41.372Z,99821.17
